Latest Weather Observations for Mount Bundey South (Defence)

IDD60801

Issued at 10:31 am CST Tuesday 20 October 2020 (issued every 10 minutes, with the page automatically refreshed every 10 minutes)

About weather observations | Map of weather stations | Latest weather observations for NT | Other Formats
Station Details ID: 014984 Name: MOUNT BUNDEY SOUTH (DEFENCE) Lat: -13.09 Lon: 131.85 Height: 55.0 m
Data from the previous 72 hours. | See also: Recent months at Mount Bundey South (Defence)
Date/Time
CST
Temp
°C
App
Temp
°C
Dew
Point
°C
Rel
Hum
%
Delta-T
°C
Wind Press
QNH
hPa
Press
MSL
hPa
Rain since
9am
mm
Dir  Spd
km/h
Gust
km/h
Spd
kts
Gust
kts
20/10:30am 32.5 35.9 22.0 54 7.2 WSW 7 11 4 6 1013.4 1013.0 0.0
20/10:00am 31.1 34.6 21.9 58 6.2 NNW 6 9 3 5 1013.9 1013.5 0.0
20/09:30am 31.2 35.6 22.8 61 5.8 WSW 4 15 2 8 1014.0 1013.6 0.0
20/09:00am 29.7 33.6 22.9 67 4.7 W 7 11 4 6 1013.9 1013.5 0.0
20/08:30am 29.3 33.6 23.3 70 4.1 NNW 6 11 3 6 1014.0 1013.6 0.0
20/08:00am 28.6 32.8 23.1 72 3.8 NNW 6 9 3 5 1013.8 1013.4 0.0
20/07:30am 27.3 31.6 22.7 76 3.1 NNW 4 6 2 3 1013.2 1012.8 0.0
20/07:00am 25.8 31.0 22.9 84 2.0 CALM 0 0 0 0 1013.0 1012.6 0.0
20/06:30am 24.9 30.2 23.1 90 1.2 CALM 0 0 0 0 1012.7 1012.3 0.0
20/06:00am 25.1 30.4 23.0 88 1.4 CALM 0 0 0 0 1012.4 1012.0 0.0
20/05:30am 25.5 30.7 22.8 85 1.8 CALM 0 0 0 0 1012.2 1011.8 0.0
20/05:00am 25.7 30.8 22.6 83 2.1 CALM 0 2 0 1 1011.9 1011.5 0.0
20/04:30am 25.9 30.8 22.4 81 2.4 CALM 0 0 0 0 1011.8 1011.4 0.0
20/04:00am 26.1 31.0 22.4 80 2.5 CALM 0 0 0 0 1011.7 1011.3 0.0
20/03:30am 26.6 31.5 22.4 78 2.8 CALM 0 0 0 0 1011.6 1011.2 0.0
20/03:00am 26.8 31.3 22.2 76 3.1 NE 2 4 1 2 1011.6 1011.2 0.0
20/02:30am 27.2 31.5 21.9 73 3.6 NNE 2 4 1 2 1011.7 1011.3 0.0
20/02:00am 27.6 31.1 21.9 71 3.8 NE 6 9 3 5 1011.9 1011.5 0.0
20/01:30am 27.6 31.1 21.9 71 3.8 NNE 6 11 3 6 1011.9 1011.5 0.0
20/01:00am 27.8 31.7 21.8 70 4.0 N 4 6 2 3 1011.8 1011.4 0.0
20/12:30am 28.0 32.0 22.0 70 4.0 N 4 6 2 3 1012.0 1011.6 0.0
20/12:00am 28.3 31.9 22.1 69 4.2 N 6 9 3 5 1012.3 1011.9 0.0
 
Date/Time
CST
Temp
°C
App
Temp
°C
Dew
Point
°C
Rel
Hum
%
Delta-T
°C
Wind Press
QNH
hPa
Press
MSL
hPa
Rain since
9am
mm
Dir  Spd
km/h
Gust
km/h
Spd
kts
Gust
kts
19/11:30pm 28.7 32.4 22.2 68 4.4 NNW 6 9 3 5 1012.5 1012.1 0.0
19/11:00pm 29.0 33.0 22.0 66 4.7 N 4 9 2 5 1012.6 1012.2 0.0
19/10:30pm 29.1 32.7 22.1 66 4.7 N 6 11 3 6 1012.6 1012.2 0.0
19/10:00pm 29.0 32.7 22.2 66 4.6 NNW 6 9 3 5 1012.5 1012.1 0.0
19/09:30pm 29.2 32.3 21.4 63 5.2 NNW 7 13 4 7 1012.0 1011.6 0.0
19/09:00pm 29.4 32.3 21.1 61 5.5 NW 7 13 4 7 1011.5 1011.1 0.0
19/08:30pm 29.7 32.5 20.8 58 5.9 NW 7 13 4 7 1010.8 1010.4 0.0
19/08:00pm 30.1 33.2 21.5 60 5.8 WNW 7 19 4 10 1010.3 1009.9 0.0
19/07:30pm 30.6 33.2 21.9 59 5.9 WNW 11 20 6 11 1009.7 1009.3 0.0
19/07:00pm 33.9 35.6 16.3 35 11.1 NNE 2 4 1 2 1008.8 1008.4 0.0
19/06:30pm 34.7 36.4 16.1 33 11.8 NE 2 9 1 5 1008.5 1008.1 0.0
19/06:00pm 35.6 36.2 15.9 31 12.5 NE 7 13 4 7 1008.2 1007.8 0.0
19/05:30pm 36.0 36.2 15.7 30 12.9 NE 9 17 5 9 1007.8 1007.4 0.0
19/05:00pm 36.2 36.8 15.9 30 12.9 E 7 11 4 6 1007.6 1007.2 0.0
19/04:30pm 36.3 37.2 16.5 31 12.7 E 7 15 4 8 1007.6 1007.2 0.0
19/04:00pm 36.1 36.3 16.8 32 12.4 ENE 11 17 6 9 1007.8 1007.4 0.0
19/03:30pm 36.2 37.4 16.9 32 12.4 NNW 6 9 3 5 1008.0 1007.6 0.0
19/03:00pm 36.5 38.2 18.1 33 12.1 NNW 6 17 3 9 1008.4 1008.0 0.0
19/02:30pm 36.1 38.1 18.7 36 11.5 W 6 13 3 7 1009.0 1008.6 0.0
19/02:00pm 34.5 37.1 18.5 38 10.5 NE 2 6 1 3 1009.6 1009.2 0.0
19/01:30pm 35.5 38.2 19.4 38 10.7 W 4 7 2 4 1010.3 1009.9 0.0
19/01:00pm 34.4 36.6 19.6 41 9.8 WNW 7 13 4 7 1011.1 1010.7 0.0
19/12:30pm 34.3 36.1 19.5 41 9.8 SW 9 15 5 8 1011.8 1011.4 0.0
19/12:00pm 33.4 36.2 20.5 46 8.6 NW 6 9 3 5 1012.3 1011.9 0.0
19/11:30am 33.3 36.4 21.1 48 8.2 W 6 9 3 5 1012.8 1012.4 0.0
19/11:00am 32.3 36.3 22.7 57 6.6 WSW 6 9 3 5 1013.1 1012.7 0.0
19/10:30am 31.7 35.5 22.4 58 6.4 WNW 6 9 3 5 1013.5 1013.1 0.0
19/10:00am 30.1 33.5 21.7 60 5.7 WNW 6 11 3 6 1013.9 1013.5 0.0
19/09:30am 29.8 34.0 22.5 65 5.0 NW 4 9 2 5 1014.2 1013.8 0.0
19/09:00am 29.4 33.9 22.9 68 4.4 NW 4 9 2 5 1014.3 1013.9 0.0
19/08:30am 28.2 32.8 23.1 74 3.5 NW 4 7 2 4 1014.2 1013.8 0.0
19/08:00am 27.7 32.6 23.1 76 3.1 N 2 7 1 4 1013.9 1013.5 0.0
19/07:30am 27.1 32.3 23.6 81 2.4 NNE 2 6 1 3 1013.5 1013.1 0.0
19/07:00am 26.2 31.8 23.5 85 1.8 CALM 0 0 0 0 1013.2 1012.8 0.0
19/06:30am 25.4 30.6 23.6 90 1.2 NE 2 4 1 2 1012.7 1012.3 0.0
19/06:00am 25.4 31.0 23.6 90 1.2 CALM 0 0 0 0 1012.5 1012.1 0.0
19/05:30am 25.8 31.4 23.5 87 1.6 CALM 0 0 0 0 1012.0 1011.6 0.0
19/05:00am 26.0 30.8 23.5 86 1.7 NE 4 6 2 3 1011.9 1011.5 0.0
19/04:30am 26.1 31.0 23.6 86 1.7 NE 4 6 2 3 1011.8 1011.4 0.0
19/04:00am 26.1 31.3 23.6 86 1.7 ENE 2 4 1 2 1011.9 1011.5 0.0
19/03:30am 26.8 31.5 23.3 81 2.4 NNE 4 9 2 5 1011.9 1011.5 0.0
19/03:00am 26.9 31.6 23.4 81 2.4 NNE 4 9 2 5 1012.1 1011.7 0.0
19/02:30am 26.7 31.8 23.4 82 2.3 NNE 2 6 1 3 1012.5 1012.1 0.0
19/02:00am 26.8 31.7 23.1 80 2.5 NNE 2 4 1 2 1012.5 1012.1 0.0
19/01:30am 27.1 31.6 22.9 78 2.9 NNE 4 6 2 3 1012.4 1012.0 0.0
19/01:00am 27.4 31.9 23.0 77 3.0 N 4 9 2 5 1012.7 1012.3 0.0
19/12:30am 27.6 32.1 23.0 76 3.1 N 4 7 2 4 1012.8 1012.4 0.0
19/12:00am 27.7 31.7 22.0 71 3.8 N 4 7 2 4 1012.9 1012.5 0.0
 
Date/Time
CST
Temp
°C
App
Temp
°C
Dew
Point
°C
Rel
Hum
%
Delta-T
°C
Wind Press
QNH
hPa
Press
MSL
hPa
Rain since
9am
mm
Dir  Spd
km/h
Gust
km/h
Spd
kts
Gust
kts
18/11:30pm 27.9 32.2 21.2 67 4.5 CALM 0 0 0 0 1012.9 1012.5 0.0
18/11:00pm 28.3 32.2 21.1 65 4.8 N 2 6 1 3 1012.7 1012.3 0.0
18/10:30pm 28.8 32.1 20.8 62 5.3 N 4 7 2 4 1012.4 1012.0 0.0
18/10:00pm 29.1 31.9 20.5 59 5.7 NNW 6 7 3 4 1012.0 1011.6 0.0
18/09:30pm 29.6 32.1 20.2 57 6.2 NNW 7 15 4 8 1011.3 1010.9 0.0
18/09:00pm 30.3 32.4 20.2 54 6.7 NNW 9 19 5 10 1010.8 1010.4 0.0
18/08:30pm 30.9 33.4 20.2 53 7.1 NNW 7 19 4 10 1010.1 1009.7 0.0
18/08:00pm 30.5 35.2 21.9 60 5.8 CALM 0 0 0 0 1009.8 1009.4 0.0
18/07:30pm 31.4 35.0 19.7 49 7.7 CALM 0 0 0 0 1009.6 1009.2 0.0
18/07:00pm 33.1 36.1 19.2 43 9.1 NNE 2 6 1 3 1009.3 1008.9 0.0
18/06:30pm 34.4 36.1 17.2 36 11.1 ENE 4 9 2 5 1008.9 1008.5 0.0
18/06:00pm 35.3 35.6 16.1 32 12.2 ENE 9 13 5 7 1008.5 1008.1 0.0
18/05:30pm 35.7 36.1 15.4 29 12.8 ESE 7 13 4 7 1008.2 1007.8 0.0
18/05:00pm 35.9 36.8 16.6 31 12.3 E 7 13 4 7 1008.1 1007.7 0.0
18/04:30pm 35.5 36.5 16.3 32 12.2 NNE 6 13 3 7 1008.2 1007.8 0.0
18/04:00pm 35.0 35.4 16.3 32 11.9 ENE 9 17 5 9 1008.6 1008.2 0.0
18/03:30pm 35.4 36.9 18.0 35 11.3 ENE 7 28 4 15 1008.9 1008.5 0.0
18/03:00pm 35.1 37.1 17.8 36 11.2 N 4 11 2 6 1009.5 1009.1 0.0
18/02:30pm 34.8 36.8 18.8 39 10.5 SSW 6 7 3 4 1009.9 1009.5 0.0
18/02:00pm 34.3 36.7 18.8 40 10.2 S 4 9 2 5 1010.4 1010.0 0.0
18/01:30pm 33.4 35.2 18.3 40 9.8 NW 6 11 3 6 1010.9 1010.5 0.0
18/01:00pm 33.5 36.0 19.9 44 9.0 SE 6 9 3 5 1011.5 1011.1 0.0
18/12:30pm 32.4 35.0 20.0 48 8.2 SSW 6 11 3 6 1012.0 1011.6 0.0
18/12:00pm 32.7 35.5 20.9 49 7.9 W 7 9 4 5 1012.5 1012.1 0.0
18/11:30am 32.5 35.4 21.0 50 7.7 SW 7 13 4 7 1012.9 1012.5 0.0
18/11:00am 31.6 34.4 20.5 51 7.4 ENE 6 9 3 5 1013.3 1012.9 0.0
18/10:30am 31.0 34.4 20.9 55 6.8 ESE 4 9 2 5 1013.7 1013.3 0.0
18/10:00am 30.5 33.3 20.4 54 6.7 NNE 6 9 3 5 1014.1 1013.7 0.0
18/09:30am 29.8 33.1 21.5 61 5.6 NNE 6 7 3 4 1014.3 1013.9 0.0
18/09:00am 29.5 33.7 21.7 63 5.3 NE 2 6 1 3 1014.4 1014.0 8.4
18/08:30am 28.1 32.2 22.3 70 3.9 NNE 4 6 2 3 1014.3 1013.9 8.4
18/08:00am 26.9 31.7 22.9 79 2.7 NW 2 4 1 2 1014.2 1013.8 8.4
18/07:30am 25.9 30.7 22.8 83 2.1 NE 2 4 1 2 1013.7 1013.3 8.4
18/07:00am 24.8 30.1 23.0 90 1.2 CALM 0 0 0 0 1013.3 1012.9 8.4
18/06:30am 24.4 30.1 23.7 96 0.5 CALM 0 0 0 0 1012.9 1012.5 8.4
18/06:00am 24.4 30.0 23.5 95 0.6 CALM 0 0 0 0 1012.6 1012.2 8.4
18/05:30am 24.3 29.8 23.4 95 0.6 CALM 0 0 0 0 1012.2 1011.8 8.4
18/05:00am 24.3 29.7 23.3 94 0.7 CALM 0 0 0 0 1011.9 1011.5 8.4
18/04:30am 24.3 29.1 22.9 92 0.9 W 2 4 1 2 1011.8 1011.4 8.4
18/04:00am 24.2 28.9 22.6 91 1.1 N 2 6 1 3 1011.7 1011.3 8.4
18/03:30am 25.9 30.0 23.2 85 1.8 SE 7 20 4 11 1011.6 1011.2 0.6
18/03:00am 25.9 31.9 24.9 94 0.7 S 2 4 1 2 1011.5 1011.1 0.6
18/02:30am 26.1 32.4 24.7 92 1.0 CALM 0 0 0 0 1011.4 1011.0 0.6
18/02:00am 26.4 32.6 24.6 90 1.3 CALM 0 2 0 1 1011.6 1011.2 0.6
18/01:30am 26.6 32.7 24.4 88 1.5 CALM 0 2 0 1 1012.1 1011.7 0.6
18/01:00am 27.2 32.7 24.1 83 2.1 WNW 2 7 1 4 1012.1 1011.7 0.6
18/12:30am 27.3 32.4 24.0 82 2.3 NNW 4 9 2 5 1012.4 1012.0 0.6
18/12:00am 26.8 32.8 24.8 89 1.4 WSW 2 4 1 2 1012.5 1012.1 0.6
 
Date/Time
CST
Temp
°C
App
Temp
°C
Dew
Point
°C
Rel
Hum
%
Delta-T
°C
Wind Press
QNH
hPa
Press
MSL
hPa
Rain since
9am
mm
Dir  Spd
km/h
Gust
km/h
Spd
kts
Gust
kts
17/11:30pm 27.2 32.1 24.3 84 2.0 WNW 6 11 3 6 1012.5 1012.1 0.6
17/11:00pm 27.9 32.7 24.1 80 2.6 NNW 6 11 3 6 1012.5 1012.1 0.6
17/10:30pm 27.9 32.7 24.1 80 2.6 NNW 6 11 3 6 1012.5 1012.1 0.6
17/10:00pm 27.8 32.6 24.2 81 2.5 NW 6 9 3 5 1012.2 1011.8 0.6
17/09:30pm 27.6 32.1 24.0 81 2.5 NNW 7 11 4 6 1011.6 1011.2 0.6
17/09:00pm 27.7 32.3 24.1 81 2.5 NNW 7 15 4 8 1011.3 1010.9 0.6
17/08:30pm 27.6 31.8 23.4 78 2.9 N 7 13 4 7 1011.0 1010.6 0.6
17/08:00pm 30.0 32.1 21.7 61 5.6 NNW 13 26 7 14 1010.5 1010.1 0.0
17/07:30pm 30.9 33.4 21.1 56 6.6 NW 9 30 5 16 1010.1 1009.7 0.0
17/07:00pm 31.2 33.3 21.7 57 6.4 NW 13 19 7 10 1009.4 1009.0 0.0
17/06:30pm 33.0 35.8 20.9 49 8.1 N 7 22 4 12 1008.7 1008.3 0.0
17/06:00pm 34.6 36.2 16.9 35 11.3 NE 4 9 2 5 1008.2 1007.8 0.0
17/05:30pm 35.4 37.1 17.1 33 11.8 NE 4 9 2 5 1007.8 1007.4 0.0
17/05:00pm 35.8 35.7 17.0 32 12.1 ENE 13 24 7 13 1007.5 1007.1 0.0
17/04:30pm 36.3 37.0 17.0 32 12.5 ENE 9 13 5 7 1007.4 1007.0 0.0
17/04:00pm 36.1 36.9 16.3 31 12.6 NE 7 15 4 8 1007.7 1007.3 0.0
17/03:30pm 36.4 37.3 16.5 30 12.8 ENE 7 20 4 11 1008.0 1007.6 0.0
17/03:00pm 35.6 35.7 16.4 32 12.3 NE 11 19 6 10 1008.4 1008.0 0.0
17/02:30pm 35.1 36.1 16.9 34 11.7 ENE 7 15 4 8 1008.9 1008.5 0.0
17/02:00pm 35.4 36.0 17.6 35 11.5 NE 11 20 6 11 1009.6 1009.2 0.0
17/01:30pm 34.8 35.3 16.6 33 11.6 NE 9 19 5 10 1010.0 1009.6 0.0
17/01:00pm 34.0 36.1 19.3 42 9.7 NNE 7 15 4 8 1010.7 1010.3 0.0
17/12:30pm 33.5 36.0 20.3 46 8.8 E 7 17 4 9 1011.3 1010.9 0.0
17/12:00pm 33.0 36.1 21.5 50 7.8 N 7 15 4 8 1012.0 1011.6 0.0
17/11:30am 32.2 34.6 20.8 51 7.6 N 9 15 5 8 1012.5 1012.1 0.0
17/11:00am 31.7 34.7 21.2 53 7.1 NE 7 15 4 8 1012.8 1012.4 0.0

Other formats

Comma delimited format used in spreadsheet applications
http://www.bom.gov.au/fwo/IDD60801/IDD60801.94112.axf

JavaScript Object Notation format (JSON) in row-major order
http://www.bom.gov.au/fwo/IDD60801/IDD60801.94112.json

Data quality

Most of these data are generated automatically and are frequently updated. Quality checks on data are not normally performed. It is possible for incorrect values to appear. Refer to information at About Latest Weather Observations and please check the disclaimer before using these data.